createdAt,value
2022-12-05T00:00:41.865Z,85.02
2022-12-05T00:01:41.951Z,85.00
2022-12-05T00:02:42.007Z,84.93
2022-12-05T00:03:41.899Z,84.93
2022-12-05T00:04:41.962Z,84.87
2022-12-05T00:05:41.865Z,84.59
2022-12-05T00:06:41.904Z,84.46
2022-12-05T00:07:41.948Z,84.38
2022-12-05T00:08:41.865Z,83.95
2022-12-05T00:09:41.799Z,83.86
2022-12-05T00:10:41.820Z,83.91
2022-12-05T00:11:42.760Z,83.95
2022-12-05T00:12:41.754Z,84.00
2022-12-05T00:13:41.926Z,83.96
2022-12-05T00:14:41.778Z,83.62
2022-12-05T00:15:41.718Z,83.32
2022-12-05T00:16:41.775Z,83.46
2022-12-05T00:17:41.758Z,83.69
2022-12-05T00:18:41.758Z,83.90
2022-12-05T00:19:41.677Z,84.08
2022-12-05T00:20:41.683Z,84.16
2022-12-05T00:21:41.738Z,84.26
2022-12-05T00:22:41.611Z,84.40
2022-12-05T00:23:41.687Z,84.57
2022-12-05T00:24:41.690Z,84.78
2022-12-05T00:25:41.719Z,84.96
2022-12-05T00:26:41.599Z,85.02
2022-12-05T00:27:41.652Z,85.05
2022-12-05T00:28:41.584Z,85.05
2022-12-05T00:29:41.541Z,85.14
2022-12-05T00:30:41.546Z,85.13
2022-12-05T00:31:41.717Z,85.17
2022-12-05T00:32:41.593Z,85.25
2022-12-05T00:33:41.507Z,85.19
2022-12-05T00:34:41.640Z,85.05
2022-12-05T00:35:41.506Z,84.90
2022-12-05T00:36:41.446Z,84.88
2022-12-05T00:37:41.377Z,84.73
2022-12-05T00:38:41.432Z,84.69
2022-12-05T00:39:41.434Z,84.71
2022-12-05T00:40:41.426Z,84.77
2022-12-05T00:41:41.414Z,84.77
2022-12-05T00:42:41.424Z,84.66
2022-12-05T00:43:41.465Z,84.44
2022-12-05T00:44:41.325Z,84.22
2022-12-05T00:45:41.358Z,84.19
2022-12-05T00:46:41.349Z,84.30
2022-12-05T00:47:41.335Z,84.33
2022-12-05T00:48:41.291Z,84.32
2022-12-05T00:49:41.273Z,84.31
2022-12-05T00:50:41.332Z,84.39
2022-12-05T00:51:41.275Z,84.48
2022-12-05T00:52:41.213Z,84.62
2022-12-05T00:53:41.251Z,84.75
2022-12-05T00:54:41.233Z,84.81
2022-12-05T00:55:41.210Z,84.88
2022-12-05T00:56:41.204Z,84.89
2022-12-05T00:57:41.162Z,84.87
2022-12-05T00:58:41.230Z,84.80
2022-12-05T00:59:41.171Z,84.78
2022-12-05T01:00:41.157Z,84.74
2022-12-05T01:01:51.738Z,84.84
2022-12-05T01:02:41.871Z,84.80
2022-12-05T01:03:41.317Z,84.78
2022-12-05T01:04:41.123Z,84.74
2022-12-05T01:05:41.101Z,84.67
2022-12-05T01:06:41.074Z,84.53
2022-12-05T01:07:41.045Z,84.64
2022-12-05T01:08:41.014Z,84.63
2022-12-05T01:09:41.026Z,84.48
2022-12-05T01:10:41.078Z,84.23
2022-12-05T01:11:41.771Z,84.14
2022-12-05T01:12:41.009Z,84.21
2022-12-05T01:13:40.986Z,83.99
2022-12-05T01:14:41.018Z,83.67
2022-12-05T01:15:41.012Z,83.21
2022-12-05T01:16:41.111Z,83.15
2022-12-05T01:17:40.920Z,83.24
2022-12-05T01:18:40.922Z,83.36
2022-12-05T01:19:40.921Z,83.57
2022-12-05T01:20:40.929Z,83.74
2022-12-05T01:21:40.866Z,83.95
2022-12-05T01:22:40.883Z,84.12
2022-12-05T01:23:40.872Z,84.31
2022-12-05T01:24:40.865Z,84.52
2022-12-05T01:25:40.912Z,84.58
2022-12-05T01:26:40.855Z,84.51
2022-12-05T01:27:40.824Z,84.52
2022-12-05T01:28:40.821Z,84.61
2022-12-05T01:29:40.733Z,84.70
2022-12-05T01:30:40.747Z,84.76
2022-12-05T01:31:40.837Z,84.80
2022-12-05T01:32:40.767Z,84.89
2022-12-05T01:33:40.761Z,84.90
2022-12-05T01:34:40.712Z,84.91
2022-12-05T01:35:40.702Z,84.94
2022-12-05T01:36:40.806Z,84.96
2022-12-05T01:37:40.756Z,84.99
2022-12-05T01:38:40.648Z,84.99
2022-12-05T01:39:40.654Z,85.00
2022-12-05T01:40:40.675Z,84.87
2022-12-05T01:41:40.599Z,84.89
2022-12-05T01:42:40.576Z,84.85
2022-12-05T01:43:40.544Z,84.82
2022-12-05T01:44:40.590Z,84.51
2022-12-05T01:45:40.628Z,84.21
2022-12-05T01:46:40.513Z,84.02
2022-12-05T01:47:40.493Z,84.08
2022-12-05T01:48:40.519Z,84.09
2022-12-05T01:49:40.501Z,84.06
2022-12-05T01:50:40.531Z,83.86
2022-12-05T01:51:40.518Z,83.87
2022-12-05T01:52:40.425Z,83.94
2022-12-05T01:53:40.419Z,84.02
2022-12-05T01:54:40.430Z,84.10
2022-12-05T01:55:40.405Z,84.20
2022-12-05T01:56:40.495Z,84.26
2022-12-05T01:57:40.479Z,84.25
2022-12-05T01:58:40.378Z,84.17
2022-12-05T01:59:40.352Z,84.09
2022-12-05T02:00:40.436Z,84.15
2022-12-05T02:01:40.430Z,84.27
2022-12-05T02:02:40.359Z,84.39
2022-12-05T02:03:40.435Z,84.42
2022-12-05T02:04:40.403Z,84.41
2022-12-05T02:05:40.356Z,84.44
2022-12-05T02:06:40.322Z,84.42
2022-12-05T02:07:40.486Z,84.38
2022-12-05T02:08:40.272Z,84.34
2022-12-05T02:09:40.233Z,84.30
2022-12-05T02:10:40.237Z,84.26
2022-12-05T02:11:40.375Z,84.31
2022-12-05T02:12:40.273Z,84.15
2022-12-05T02:13:40.200Z,84.10
2022-12-05T02:14:40.226Z,84.00
2022-12-05T02:15:40.213Z,83.81
2022-12-05T02:16:40.209Z,83.81
2022-12-05T02:17:40.195Z,83.86
2022-12-05T02:18:40.148Z,83.93
2022-12-05T02:19:40.114Z,83.91
2022-12-05T02:20:40.219Z,83.86
2022-12-05T02:21:40.160Z,83.90
2022-12-05T02:22:40.140Z,84.02
2022-12-05T02:23:40.102Z,84.15
2022-12-05T02:24:40.211Z,84.33
2022-12-05T02:26:00.691Z,84.39
2022-12-05T02:26:51.042Z,84.53
2022-12-05T02:27:40.026Z,84.65
2022-12-05T02:28:40.025Z,84.73
2022-12-05T02:29:40.004Z,84.88
2022-12-05T02:30:40.047Z,84.93
2022-12-05T02:31:40.089Z,85.00
2022-12-05T02:32:39.961Z,84.97
2022-12-05T02:33:39.990Z,84.93
2022-12-05T02:34:39.909Z,84.91
2022-12-05T02:35:39.935Z,84.86
2022-12-05T02:36:40.058Z,84.89
2022-12-05T02:37:40.022Z,84.89
2022-12-05T02:38:40.020Z,84.89
2022-12-05T02:39:39.901Z,84.86
2022-12-05T02:40:39.885Z,84.82
2022-12-05T02:41:39.847Z,84.78
2022-12-05T02:42:39.933Z,84.78
2022-12-05T02:43:39.840Z,84.82
2022-12-05T02:44:39.803Z,84.72
2022-12-05T02:45:39.874Z,84.57
2022-12-05T02:46:39.766Z,84.54
2022-12-05T02:47:39.787Z,84.56
2022-12-05T02:48:39.711Z,84.45
2022-12-05T02:49:39.779Z,84.45
2022-12-05T02:50:39.730Z,84.46
2022-12-05T02:51:39.700Z,84.53
2022-12-05T02:52:39.786Z,84.65
2022-12-05T02:53:39.689Z,84.78
2022-12-05T02:54:39.840Z,84.87
2022-12-05T02:55:39.746Z,84.94
2022-12-05T02:56:39.707Z,84.89
2022-12-05T02:57:39.799Z,84.80
2022-12-05T02:58:39.640Z,84.74
2022-12-05T02:59:39.675Z,84.53
2022-12-05T03:00:39.583Z,84.47
2022-12-05T03:01:39.590Z,84.45
2022-12-05T03:02:40.253Z,84.35
2022-12-05T03:03:39.519Z,84.39
2022-12-05T03:04:39.658Z,84.41
2022-12-05T03:05:39.523Z,84.40
2022-12-05T03:06:39.600Z,84.42
2022-12-05T03:07:39.639Z,84.42
2022-12-05T03:08:39.555Z,84.43
2022-12-05T03:09:39.570Z,84.38
2022-12-05T03:10:39.547Z,84.36
2022-12-05T03:11:39.497Z,84.41
2022-12-05T03:12:39.577Z,84.46
2022-12-05T03:13:39.509Z,84.36
2022-12-05T03:14:39.433Z,84.36
2022-12-05T03:15:39.421Z,84.38
2022-12-05T03:16:39.480Z,84.48
2022-12-05T03:17:39.328Z,84.47
2022-12-05T03:18:39.356Z,84.51
2022-12-05T03:19:39.334Z,84.51
2022-12-05T03:20:39.353Z,84.50
2022-12-05T03:21:39.397Z,84.55
2022-12-05T03:22:39.386Z,84.40
2022-12-05T03:23:39.294Z,84.47
2022-12-05T03:24:39.321Z,84.39
2022-12-05T03:25:39.343Z,84.37
2022-12-05T03:26:39.305Z,84.54
2022-12-05T03:27:39.298Z,84.69
2022-12-05T03:28:39.246Z,84.83
2022-12-05T03:29:39.319Z,84.98
2022-12-05T03:30:39.431Z,85.12
2022-12-05T03:31:39.238Z,85.14
2022-12-05T03:32:39.165Z,85.11
2022-12-05T03:33:39.167Z,85.12
2022-12-05T03:34:39.199Z,85.16
2022-12-05T03:35:39.198Z,85.26
2022-12-05T03:36:39.165Z,85.36
2022-12-05T03:37:39.146Z,85.42
2022-12-05T03:38:39.124Z,85.34
2022-12-05T03:39:39.059Z,85.39
2022-12-05T03:40:39.051Z,85.38
2022-12-05T03:41:39.189Z,85.41
2022-12-05T03:42:39.114Z,85.47
2022-12-05T03:43:39.070Z,85.43
2022-12-05T03:44:39.052Z,85.42
2022-12-05T03:45:39.145Z,85.30
2022-12-05T03:46:39.155Z,85.33
2022-12-05T03:47:38.972Z,85.39
2022-12-05T03:48:39.041Z,85.48
2022-12-05T03:49:38.977Z,85.48
2022-12-05T03:50:38.974Z,85.41
2022-12-05T03:51:39.064Z,85.43
2022-12-05T03:52:57.190Z,85.45
2022-12-05T03:53:38.926Z,85.38
2022-12-05T03:54:38.883Z,85.34
2022-12-05T03:55:38.885Z,85.42
2022-12-05T03:56:38.931Z,85.46
2022-12-05T03:57:38.816Z,85.52
2022-12-05T03:58:38.862Z,85.46
2022-12-05T03:59:38.832Z,85.36
2022-12-05T04:00:38.825Z,85.38
2022-12-05T04:01:38.847Z,85.42
2022-12-05T04:02:38.871Z,85.44
2022-12-05T04:03:38.963Z,85.53
2022-12-05T04:04:38.878Z,85.56
2022-12-05T04:05:38.822Z,85.54
2022-12-05T04:06:38.876Z,85.47
2022-12-05T04:07:38.805Z,85.41
2022-12-05T04:08:38.728Z,85.34
2022-12-05T04:09:38.783Z,85.24
2022-12-05T04:10:38.814Z,85.02
2022-12-05T04:11:38.700Z,85.00
2022-12-05T04:12:38.685Z,85.02
2022-12-05T04:13:38.639Z,85.04
2022-12-05T04:14:38.602Z,85.10
2022-12-05T04:15:38.733Z,85.08
2022-12-05T04:16:38.656Z,85.09
2022-12-05T04:17:38.612Z,84.98
2022-12-05T04:18:38.594Z,84.86
2022-12-05T04:19:38.633Z,84.87
2022-12-05T04:20:38.688Z,84.92
2022-12-05T04:21:38.633Z,84.97
2022-12-05T04:22:38.514Z,85.02
2022-12-05T04:23:41.399Z,85.03
2022-12-05T04:24:38.519Z,84.99
2022-12-05T04:25:38.549Z,84.95
2022-12-05T04:26:38.467Z,84.93
2022-12-05T04:27:38.429Z,84.97
2022-12-05T04:28:38.572Z,84.96
2022-12-05T04:29:38.475Z,84.99
2022-12-05T04:30:38.641Z,85.03
2022-12-05T04:31:38.494Z,85.01
2022-12-05T04:32:38.401Z,84.79
2022-12-05T04:33:38.425Z,84.66
2022-12-05T04:34:38.381Z,84.54
2022-12-05T04:35:38.464Z,84.45
2022-12-05T04:36:38.375Z,84.43
2022-12-05T04:37:38.333Z,84.43
2022-12-05T04:38:38.272Z,84.51
2022-12-05T04:39:38.303Z,84.53
2022-12-05T04:40:38.350Z,84.51
2022-12-05T04:41:38.259Z,84.49
2022-12-05T04:42:38.321Z,84.53
2022-12-05T04:43:38.355Z,84.54
2022-12-05T04:44:38.345Z,84.54
2022-12-05T04:45:38.305Z,84.58
2022-12-05T04:46:38.255Z,84.54
2022-12-05T04:47:38.233Z,84.57
2022-12-05T04:48:38.227Z,84.62
2022-12-05T04:49:38.215Z,84.56
2022-12-05T04:50:38.175Z,84.52
2022-12-05T04:51:38.135Z,84.54
2022-12-05T04:52:38.149Z,84.55
2022-12-05T04:53:38.134Z,84.59
2022-12-05T04:54:38.123Z,84.66
2022-12-05T04:55:38.093Z,84.70
2022-12-05T04:56:38.172Z,84.75
2022-12-05T04:57:38.072Z,84.70
2022-12-05T04:58:38.149Z,84.68
2022-12-05T04:59:38.065Z,84.71
2022-12-05T05:00:38.053Z,84.67
2022-12-05T05:01:38.164Z,84.61
2022-12-05T05:02:38.093Z,84.55
2022-12-05T05:03:38.063Z,84.54
2022-12-05T05:04:37.985Z,84.54
2022-12-05T05:05:38.068Z,84.55
2022-12-05T05:06:37.994Z,84.57
2022-12-05T05:07:38.018Z,84.56
2022-12-05T05:08:37.980Z,84.53
2022-12-05T05:09:37.980Z,84.54
2022-12-05T05:10:37.921Z,84.53
2022-12-05T05:11:37.929Z,84.55
2022-12-05T05:12:38.047Z,84.55
2022-12-05T05:13:37.893Z,84.50
2022-12-05T05:14:37.921Z,84.54
2022-12-05T05:15:37.985Z,84.58
2022-12-05T05:16:38.004Z,84.51
2022-12-05T05:17:37.865Z,84.49
2022-12-05T05:18:37.830Z,84.48
2022-12-05T05:19:37.759Z,84.42
2022-12-05T05:20:37.749Z,84.25
2022-12-05T05:21:37.767Z,84.23
2022-12-05T05:22:37.737Z,84.21
2022-12-05T05:23:37.754Z,84.00
2022-12-05T05:24:37.721Z,83.87
2022-12-05T05:25:37.707Z,83.92
2022-12-05T05:26:37.724Z,83.74
2022-12-05T05:27:37.690Z,83.75
2022-12-05T05:28:37.643Z,83.82
2022-12-05T05:29:37.728Z,83.90
2022-12-05T05:30:37.668Z,83.97
2022-12-05T05:31:37.835Z,84.07
2022-12-05T05:32:37.665Z,84.07
2022-12-05T05:33:37.771Z,84.04
2022-12-05T05:36:11.822Z,83.83
2022-12-05T05:37:12.075Z,83.98
2022-12-05T05:38:11.020Z,84.11
2022-12-05T05:39:11.114Z,84.09
2022-12-05T05:40:11.346Z,84.10
2022-12-05T05:45:19.207Z,84.52
2022-12-05T05:49:11.612Z,84.70
2022-12-05T05:50:17.769Z,84.73
2022-12-05T05:51:12.491Z,84.64
2022-12-05T05:52:12.536Z,84.52
2022-12-05T05:54:30.005Z,84.55
2022-12-05T05:55:30.365Z,84.65
2022-12-05T05:56:30.361Z,84.76
2022-12-05T05:57:30.395Z,84.79
2022-12-05T05:58:30.314Z,84.82
2022-12-05T05:59:30.325Z,84.86
2022-12-05T06:00:30.319Z,84.84
2022-12-05T06:01:30.291Z,84.84
2022-12-05T06:02:30.286Z,84.72
2022-12-05T06:03:30.483Z,84.58
2022-12-05T06:04:30.244Z,84.52
2022-12-05T06:05:30.261Z,84.58
2022-12-05T06:06:30.220Z,84.66
2022-12-05T06:07:30.389Z,84.73
2022-12-05T06:08:30.192Z,84.77
2022-12-05T06:09:30.194Z,84.77
2022-12-05T06:10:30.190Z,84.75
2022-12-05T06:11:30.151Z,84.72
2022-12-05T06:12:30.173Z,84.71
2022-12-05T06:13:30.128Z,84.70
2022-12-05T06:14:30.143Z,84.72
2022-12-05T06:15:30.130Z,84.73
2022-12-05T06:16:30.211Z,84.77
2022-12-05T06:17:30.075Z,84.88
2022-12-05T06:18:30.069Z,84.94
2022-12-05T06:19:30.062Z,84.98
2022-12-05T06:20:30.039Z,84.86
2022-12-05T06:21:31.019Z,84.86
2022-12-05T06:22:30.023Z,84.80
2022-12-05T06:23:29.994Z,84.69
2022-12-05T06:24:29.983Z,84.57
2022-12-05T06:25:30.005Z,84.62
2022-12-05T06:26:29.966Z,84.66
2022-12-05T06:27:29.965Z,84.70
2022-12-05T06:28:29.970Z,84.67
2022-12-05T06:29:33.639Z,84.51
2022-12-05T06:30:29.907Z,84.44
2022-12-05T06:31:29.922Z,84.52
2022-12-05T06:32:29.893Z,84.60
2022-12-05T06:33:30.007Z,84.67
2022-12-05T06:34:29.863Z,84.67
2022-12-05T06:35:30.601Z,84.62
2022-12-05T06:36:29.827Z,84.62
2022-12-05T06:37:30.123Z,84.56
2022-12-05T06:38:29.797Z,84.57
2022-12-05T06:39:29.831Z,84.58
2022-12-05T06:40:29.783Z,84.50
2022-12-05T06:41:29.766Z,84.46
2022-12-05T06:42:29.764Z,84.42
2022-12-05T06:43:29.765Z,84.40
2022-12-05T06:44:29.738Z,84.40
2022-12-05T06:45:29.805Z,84.40
2022-12-05T06:46:29.777Z,84.34
2022-12-05T06:47:29.683Z,84.10
2022-12-05T06:48:29.686Z,84.15
2022-12-05T06:49:33.657Z,84.10
2022-12-05T06:50:30.592Z,84.04
2022-12-05T06:51:29.642Z,84.08
2022-12-05T06:52:29.619Z,84.07
2022-12-05T06:53:29.692Z,84.08
2022-12-05T06:54:32.965Z,84.00
2022-12-05T06:55:29.598Z,84.00
2022-12-05T06:56:29.585Z,84.03
2022-12-05T06:57:29.559Z,84.04
2022-12-05T06:58:29.554Z,84.09
2022-12-05T06:59:29.548Z,83.99
2022-12-05T07:00:29.545Z,83.92
2022-12-05T07:01:29.567Z,84.11
2022-12-05T07:02:29.549Z,84.26
2022-12-05T07:03:29.497Z,84.23
2022-12-05T07:04:29.467Z,84.16
2022-12-05T07:05:29.482Z,84.16
2022-12-05T07:06:29.473Z,84.13
2022-12-05T07:07:29.485Z,84.15
2022-12-05T07:08:29.411Z,84.14
2022-12-05T07:09:29.573Z,84.14
2022-12-05T07:10:29.504Z,84.10
2022-12-05T07:11:29.392Z,84.12
2022-12-05T07:12:29.361Z,84.10
2022-12-05T07:13:29.356Z,84.08
2022-12-05T07:14:47.143Z,84.06
2022-12-05T07:15:29.372Z,84.03
2022-12-05T07:16:29.407Z,84.04
2022-12-05T07:17:29.307Z,84.06
2022-12-05T07:18:29.312Z,84.04
2022-12-05T07:19:29.289Z,84.01
2022-12-05T07:20:43.154Z,84.06
2022-12-05T07:21:29.258Z,84.02
2022-12-05T07:22:29.263Z,83.98
2022-12-05T07:23:29.227Z,83.80
2022-12-05T07:24:29.218Z,83.68
2022-12-05T07:25:29.229Z,83.61
2022-12-05T07:26:29.212Z,83.51
2022-12-05T07:27:29.179Z,83.44
2022-12-05T07:28:29.164Z,83.39
2022-12-05T07:29:29.155Z,83.35
2022-12-05T07:30:29.136Z,83.31
2022-12-05T07:31:29.162Z,83.31
2022-12-05T07:32:29.104Z,83.31
2022-12-05T07:33:29.148Z,83.28
2022-12-05T07:34:29.086Z,83.25
2022-12-05T07:35:29.073Z,83.19
2022-12-05T07:36:29.076Z,83.12
2022-12-05T07:37:29.040Z,83.06
2022-12-05T07:38:29.028Z,83.08
2022-12-05T07:39:29.041Z,83.05
2022-12-05T07:40:29.002Z,82.99
2022-12-05T07:41:28.988Z,83.01
2022-12-05T07:42:28.980Z,83.00
2022-12-05T07:43:28.966Z,82.95
2022-12-05T07:44:28.964Z,82.89
2022-12-05T07:45:29.005Z,82.83
2022-12-05T07:46:29.106Z,82.77
2022-12-05T07:47:29.083Z,82.82
2022-12-05T07:48:28.901Z,82.71
2022-12-05T07:49:28.885Z,82.57
2022-12-05T07:50:28.866Z,82.51
2022-12-05T07:51:28.892Z,82.50
2022-12-05T07:52:28.847Z,82.55
2022-12-05T07:53:28.835Z,82.51
2022-12-05T07:54:28.863Z,82.50
2022-12-05T07:55:28.828Z,82.43
2022-12-05T07:56:28.801Z,82.33
2022-12-05T07:57:28.789Z,82.38
2022-12-05T07:58:28.787Z,82.29
2022-12-05T07:59:28.771Z,82.28
2022-12-05T08:00:28.740Z,82.26
2022-12-05T08:01:28.844Z,82.29
2022-12-05T08:02:28.781Z,82.32
2022-12-05T08:03:28.725Z,82.21
2022-12-05T08:04:28.708Z,82.15
2022-12-05T08:05:28.682Z,82.11
2022-12-05T08:06:28.689Z,82.04
2022-12-05T08:07:28.652Z,82.04
2022-12-05T08:08:28.643Z,82.03
2022-12-05T08:09:28.637Z,81.92
2022-12-05T08:10:28.620Z,81.94
2022-12-05T08:11:28.633Z,81.95
2022-12-05T08:12:28.607Z,81.90
2022-12-05T08:13:28.576Z,81.87
2022-12-05T08:14:28.580Z,81.69
2022-12-05T08:15:28.577Z,81.63
2022-12-05T08:16:28.704Z,81.63
2022-12-05T08:17:28.519Z,81.53
2022-12-05T08:18:28.535Z,81.57
2022-12-05T08:19:28.519Z,81.51
2022-12-05T08:20:28.481Z,81.51
2022-12-05T08:21:28.471Z,81.46
2022-12-05T08:22:28.489Z,81.49
2022-12-05T08:23:28.448Z,81.56
2022-12-05T08:24:28.462Z,81.61
2022-12-05T08:25:28.422Z,81.64
2022-12-05T08:26:28.422Z,81.64
2022-12-05T08:27:28.405Z,81.61
2022-12-05T08:28:28.387Z,81.72
2022-12-05T08:29:28.461Z,81.73
2022-12-05T08:30:28.464Z,81.78
2022-12-05T08:31:28.432Z,81.83
2022-12-05T08:32:28.379Z,81.84
2022-12-05T08:33:28.324Z,81.86
2022-12-05T08:34:28.335Z,81.90
2022-12-05T08:35:28.364Z,81.93
2022-12-05T08:36:28.288Z,81.96
2022-12-05T08:37:28.296Z,81.97
2022-12-05T08:38:28.256Z,82.01
2022-12-05T08:39:28.261Z,82.04
2022-12-05T08:40:28.273Z,82.10
2022-12-05T08:41:28.229Z,82.10
2022-12-05T08:42:28.197Z,82.10
2022-12-05T08:43:28.189Z,82.11
2022-12-05T08:44:28.226Z,82.16
2022-12-05T08:45:28.170Z,82.18
2022-12-05T08:46:28.252Z,82.24
2022-12-05T08:47:28.157Z,82.20
2022-12-05T08:48:29.602Z,82.17
2022-12-05T08:49:28.135Z,82.07
2022-12-05T08:50:28.092Z,82.06
2022-12-05T08:51:28.100Z,82.05
2022-12-05T08:52:28.226Z,82.11
2022-12-05T08:53:28.057Z,82.09
2022-12-05T08:54:28.068Z,82.06
2022-12-05T08:55:28.060Z,82.06
2022-12-05T08:56:28.020Z,82.01
2022-12-05T08:57:28.020Z,82.07
2022-12-05T08:58:28.011Z,82.10
2022-12-05T08:59:28.017Z,82.09
2022-12-05T09:00:28.010Z,82.16
2022-12-05T09:01:27.997Z,82.20
2022-12-05T09:02:28.024Z,82.26
2022-12-05T09:03:27.930Z,82.22
2022-12-05T09:04:27.910Z,82.18
2022-12-05T09:05:29.459Z,82.24
2022-12-05T09:06:27.923Z,82.24
2022-12-05T09:07:27.884Z,82.28
2022-12-05T09:08:27.878Z,82.29
2022-12-05T09:09:27.855Z,82.28
2022-12-05T09:10:27.936Z,82.38
2022-12-05T09:11:27.826Z,82.32
2022-12-05T09:12:27.852Z,82.32
2022-12-05T09:13:27.804Z,82.20
2022-12-05T09:14:27.794Z,82.20
2022-12-05T09:15:27.929Z,82.29
2022-12-05T09:16:30.984Z,82.32
2022-12-05T09:17:27.796Z,82.35
2022-12-05T09:18:27.759Z,82.28
2022-12-05T09:19:27.769Z,82.28
2022-12-05T09:20:28.785Z,82.36
2022-12-05T09:21:27.692Z,82.38
2022-12-05T09:22:27.685Z,82.39
2022-12-05T09:23:27.665Z,82.36
2022-12-05T09:24:27.668Z,82.37
2022-12-05T09:25:27.699Z,82.32
2022-12-05T09:26:27.633Z,82.28
2022-12-05T09:27:27.616Z,82.31
2022-12-05T09:28:27.771Z,82.35
2022-12-05T09:29:27.595Z,82.43
2022-12-05T09:30:27.662Z,82.37
2022-12-05T09:31:27.682Z,82.27
2022-12-05T09:32:27.574Z,82.24
2022-12-05T09:33:27.575Z,82.27
2022-12-05T09:34:27.551Z,82.27
2022-12-05T09:35:27.637Z,82.20
2022-12-05T09:36:27.544Z,82.13
2022-12-05T09:37:42.681Z,82.12
2022-12-05T09:38:27.504Z,82.13
2022-12-05T09:39:27.468Z,82.22
2022-12-05T09:40:27.545Z,82.20
2022-12-05T09:41:27.431Z,82.02
2022-12-05T09:42:27.446Z,81.80
2022-12-05T09:43:27.443Z,81.70
2022-12-05T09:44:27.398Z,81.85
2022-12-05T09:45:27.492Z,82.10
2022-12-05T09:46:30.320Z,82.27
2022-12-05T09:47:27.397Z,82.37
2022-12-05T09:48:27.349Z,82.44
2022-12-05T09:49:27.334Z,82.51
2022-12-05T09:50:27.330Z,82.58
2022-12-05T09:51:27.347Z,82.66
2022-12-05T09:52:27.300Z,82.67
2022-12-05T09:53:27.300Z,82.60
2022-12-05T09:54:27.282Z,82.42
2022-12-05T09:55:27.331Z,82.56
2022-12-05T09:56:27.259Z,82.62
2022-12-05T09:57:33.331Z,82.70
2022-12-05T09:58:27.232Z,82.83
2022-12-05T09:59:27.211Z,82.80
2022-12-05T10:00:27.261Z,82.65
2022-12-05T10:01:27.274Z,82.77
2022-12-05T10:02:27.167Z,82.83
2022-12-05T10:03:27.159Z,82.99
2022-12-05T10:04:27.223Z,83.04
2022-12-05T10:05:27.249Z,83.17
2022-12-05T10:06:27.138Z,83.28
2022-12-05T10:07:27.120Z,83.15
2022-12-05T10:08:27.105Z,83.17
2022-12-05T10:09:27.086Z,83.17
2022-12-05T10:10:27.062Z,83.24
2022-12-05T10:11:27.065Z,83.34
2022-12-05T10:12:27.037Z,83.39
2022-12-05T10:13:27.124Z,83.45
2022-12-05T10:14:27.045Z,83.48
2022-12-05T10:15:27.011Z,83.46
2022-12-05T10:16:27.070Z,83.49
2022-12-05T10:17:27.006Z,83.50
2022-12-05T10:18:26.963Z,83.50
2022-12-05T10:19:26.983Z,83.47
2022-12-05T10:20:26.948Z,83.42
2022-12-05T10:21:26.930Z,83.36
2022-12-05T10:22:26.931Z,83.37
2022-12-05T10:23:55.856Z,83.19
2022-12-05T10:24:26.894Z,83.19
2022-12-05T10:25:26.880Z,83.29
2022-12-05T10:26:26.875Z,83.40
2022-12-05T10:27:26.866Z,83.55
2022-12-05T10:28:26.836Z,83.65
2022-12-05T10:29:26.842Z,83.79
2022-12-05T10:30:26.821Z,83.85
2022-12-05T10:31:27.888Z,83.87
2022-12-05T10:32:26.791Z,83.97
2022-12-05T10:33:26.781Z,83.95
2022-12-05T10:34:26.761Z,84.00
2022-12-05T10:35:26.754Z,84.02
2022-12-05T10:36:26.737Z,84.06
2022-12-05T10:37:26.725Z,83.89
2022-12-05T10:38:26.707Z,83.81
2022-12-05T10:39:26.700Z,83.83
2022-12-05T10:40:26.696Z,83.84
2022-12-05T10:41:26.666Z,83.83
2022-12-05T10:42:26.659Z,83.85
2022-12-05T10:43:26.655Z,83.88
2022-12-05T10:44:26.631Z,83.89
2022-12-05T10:45:26.621Z,83.89
2022-12-05T10:46:26.726Z,83.83
2022-12-05T10:47:26.589Z,83.79
2022-12-05T10:48:26.596Z,83.82
2022-12-05T10:49:26.571Z,83.82
2022-12-05T10:50:26.572Z,83.84
2022-12-05T10:51:26.540Z,83.87
2022-12-05T10:52:26.542Z,83.88
2022-12-05T10:53:26.524Z,83.76
2022-12-05T10:54:26.517Z,83.68
2022-12-05T10:55:26.497Z,83.74
2022-12-05T10:56:30.780Z,83.66
2022-12-05T10:57:26.461Z,83.55
2022-12-05T10:58:26.456Z,83.52
2022-12-05T10:59:26.457Z,83.35
2022-12-05T11:00:26.434Z,83.31
2022-12-05T11:01:26.905Z,83.40
2022-12-05T11:02:26.466Z,83.46
2022-12-05T11:03:26.473Z,83.45
2022-12-05T11:04:26.393Z,83.36
2022-12-05T11:05:26.390Z,83.26
2022-12-05T11:06:26.376Z,83.19
2022-12-05T11:07:26.361Z,83.06
2022-12-05T11:08:48.341Z,82.82
2022-12-05T11:09:26.317Z,82.86
2022-12-05T11:10:27.106Z,82.60
2022-12-05T11:11:26.320Z,82.52
2022-12-05T11:12:26.321Z,82.42
2022-12-05T11:13:26.269Z,82.41
2022-12-05T11:14:26.493Z,82.52
2022-12-05T11:15:26.247Z,82.78
2022-12-05T11:16:26.353Z,83.05
2022-12-05T11:17:26.388Z,83.19
2022-12-05T11:18:26.208Z,83.17
2022-12-05T11:19:26.185Z,83.12
2022-12-05T11:20:26.341Z,83.09
2022-12-05T11:21:26.154Z,82.95
2022-12-05T11:22:26.211Z,82.86
2022-12-05T11:23:26.139Z,82.91
2022-12-05T11:24:26.144Z,83.10
2022-12-05T11:25:26.123Z,83.21
2022-12-05T11:26:26.104Z,83.04
2022-12-05T11:27:26.115Z,82.98
2022-12-05T11:28:26.093Z,83.00
2022-12-05T11:29:26.060Z,83.04
2022-12-05T11:30:26.042Z,83.04
2022-12-05T11:31:26.077Z,83.03
2022-12-05T11:32:26.049Z,83.10
2022-12-05T11:33:26.006Z,83.11
2022-12-05T11:34:26.009Z,83.11
2022-12-05T11:35:26.008Z,83.01
2022-12-05T11:36:25.974Z,83.05
2022-12-05T11:37:26.079Z,82.49
2022-12-05T11:38:26.668Z,82.43
2022-12-05T11:39:25.930Z,82.53
2022-12-05T11:40:28.932Z,82.59
2022-12-05T11:41:25.937Z,82.60
2022-12-05T11:42:25.930Z,82.75
2022-12-05T11:43:25.887Z,82.79
2022-12-05T11:44:25.892Z,82.68
2022-12-05T11:45:25.858Z,82.55
2022-12-05T11:46:26.997Z,82.50
2022-12-05T11:47:25.863Z,82.43
2022-12-05T11:48:25.818Z,82.30
2022-12-05T11:49:25.805Z,82.38
2022-12-05T11:50:25.812Z,82.50
2022-12-05T11:51:25.899Z,82.60
2022-12-05T11:52:25.773Z,82.65
2022-12-05T11:53:25.755Z,82.58
2022-12-05T11:54:42.075Z,82.58
2022-12-05T11:55:25.738Z,82.69
2022-12-05T11:56:25.732Z,82.76
2022-12-05T11:57:25.721Z,82.74
2022-12-05T11:58:25.694Z,82.18
2022-12-05T11:59:25.683Z,82.18
2022-12-05T12:00:25.684Z,82.36
2022-12-05T12:01:25.665Z,82.39
2022-12-05T12:02:25.952Z,82.45
2022-12-05T12:03:31.216Z,82.48
2022-12-05T12:04:25.625Z,82.30
2022-12-05T12:05:25.613Z,81.92
2022-12-05T12:06:25.596Z,82.03
2022-12-05T12:07:25.583Z,82.13
2022-12-05T12:08:25.664Z,82.14
2022-12-05T12:09:25.612Z,82.08
2022-12-05T12:10:25.541Z,82.15
2022-12-05T12:11:25.710Z,82.25
2022-12-05T12:12:25.663Z,82.29
2022-12-05T12:13:25.598Z,82.05
2022-12-05T12:14:25.498Z,82.03
2022-12-05T12:15:26.395Z,82.07
2022-12-05T12:16:25.512Z,82.11
2022-12-05T12:17:25.521Z,82.12
2022-12-05T12:18:25.439Z,82.08
2022-12-05T12:19:25.439Z,81.97
2022-12-05T12:20:25.430Z,81.94
2022-12-05T12:21:25.395Z,82.03
2022-12-05T12:22:25.387Z,82.04
2022-12-05T12:23:25.396Z,82.09
2022-12-05T12:24:25.377Z,81.84
2022-12-05T12:25:25.352Z,81.86
2022-12-05T12:26:25.343Z,81.89
2022-12-05T12:27:25.324Z,81.85
2022-12-05T12:28:25.496Z,81.77
2022-12-05T12:29:25.295Z,81.82
2022-12-05T12:30:25.309Z,81.90
2022-12-05T12:31:25.383Z,81.82
2022-12-05T12:32:25.409Z,81.66
2022-12-05T12:33:27.336Z,81.33
2022-12-05T12:34:25.256Z,81.20
2022-12-05T12:35:25.240Z,81.32
2022-12-05T12:36:25.224Z,81.45
2022-12-05T12:37:25.209Z,81.59
2022-12-05T12:38:25.182Z,81.58
2022-12-05T12:39:25.236Z,81.59
2022-12-05T12:40:25.169Z,81.51
2022-12-05T12:41:25.223Z,81.21
2022-12-05T12:42:25.149Z,81.12
2022-12-05T12:43:51.987Z,81.08
2022-12-05T12:44:25.140Z,81.01
2022-12-05T12:45:25.207Z,80.95
2022-12-05T12:46:25.210Z,81.00
2022-12-05T12:47:25.081Z,80.98
2022-12-05T12:48:25.082Z,80.94
2022-12-05T12:49:25.071Z,80.69
2022-12-05T12:50:25.051Z,80.69
2022-12-05T12:51:25.732Z,80.48
2022-12-05T12:52:25.021Z,80.40
2022-12-05T12:53:25.007Z,80.08
2022-12-05T12:54:46.996Z,80.13
2022-12-05T12:55:24.975Z,80.20
2022-12-05T12:56:24.971Z,80.27
2022-12-05T12:57:24.967Z,80.34
2022-12-05T12:58:24.948Z,80.39
2022-12-05T12:59:24.967Z,80.41
2022-12-05T13:00:24.905Z,80.35
2022-12-05T13:01:25.024Z,79.87
2022-12-05T13:02:24.961Z,79.89